sensor_id;sensor_type;location;lat;lon;timestamp;pressure;altitude;pressure_sealevel;temperature;humidity
21185;BME280;18176;49.502;11.754;2023-06-22T00:00:25;97175.88;;;22.27;74.13
21185;BME280;18176;49.502;11.754;2023-06-22T00:04:27;97180.06;;;22.19;74.13
21185;BME280;18176;49.502;11.754;2023-06-22T00:08:29;97147.38;;;21.75;74.85
21185;BME280;18176;49.502;11.754;2023-06-22T00:12:30;97175.41;;;21.93;74.87
21185;BME280;18176;49.502;11.754;2023-06-22T00:16:32;97129.94;;;21.54;75.81
21185;BME280;18176;49.502;11.754;2023-06-22T00:20:33;97172.16;;;21.77;75.95
21185;BME280;18176;49.502;11.754;2023-06-22T00:24:37;97135.94;;;21.64;75.78
21185;BME280;18176;49.502;11.754;2023-06-22T00:28:37;97168.25;;;21.83;75.22
21185;BME280;18176;49.502;11.754;2023-06-22T00:32:37;97166.81;;;21.91;74.83
21185;BME280;18176;49.502;11.754;2023-06-22T00:36:37;97186.28;;;21.88;75.40
21185;BME280;18176;49.502;11.754;2023-06-22T00:40:40;97164.75;;;21.83;75.36
21185;BME280;18176;49.502;11.754;2023-06-22T00:44:41;97168.06;;;21.80;75.31
21185;BME280;18176;49.502;11.754;2023-06-22T00:48:42;97159.97;;;21.80;74.71
21185;BME280;18176;49.502;11.754;2023-06-22T00:52:42;97156.84;;;21.73;75.43
21185;BME280;18176;49.502;11.754;2023-06-22T00:56:46;97171.34;;;21.77;75.00
21185;BME280;18176;49.502;11.754;2023-06-22T01:00:47;97166.09;;;21.66;75.03
21185;BME280;18176;49.502;11.754;2023-06-22T01:04:48;97150.44;;;21.36;75.46
21185;BME280;18176;49.502;11.754;2023-06-22T01:09:00;97162.72;;;21.42;75.27
21185;BME280;18176;49.502;11.754;2023-06-22T01:13:20;97163.97;;;21.31;75.71
21185;BME280;18176;49.502;11.754;2023-06-22T01:17:24;97178.84;;;21.47;74.77
21185;BME280;18176;49.502;11.754;2023-06-22T01:21:31;97181.28;;;21.44;74.75
21185;BME280;18176;49.502;11.754;2023-06-22T01:25:41;97169.31;;;21.36;75.16
21185;BME280;18176;49.502;11.754;2023-06-22T01:29:46;97165.56;;;21.32;74.98
21185;BME280;18176;49.502;11.754;2023-06-22T01:33:53;97166.66;;;21.50;74.47
21185;BME280;18176;49.502;11.754;2023-06-22T01:37:54;97183.53;;;21.55;74.83
21185;BME280;18176;49.502;11.754;2023-06-22T01:41:55;97160.47;;;21.49;74.59
21185;BME280;18176;49.502;11.754;2023-06-22T01:46:02;97160.16;;;21.51;73.50
21185;BME280;18176;49.502;11.754;2023-06-22T01:50:03;97166.63;;;21.36;74.62
21185;BME280;18176;49.502;11.754;2023-06-22T01:54:06;97114.06;;;20.96;75.46
21185;BME280;18176;49.502;11.754;2023-06-22T01:58:06;97114.78;;;21.02;75.63
21185;BME280;18176;49.502;11.754;2023-06-22T02:02:11;97130.34;;;21.10;75.80
21185;BME280;18176;49.502;11.754;2023-06-22T02:06:21;97118.22;;;20.89;76.74
21185;BME280;18176;49.502;11.754;2023-06-22T02:10:26;97130.16;;;20.83;77.18
21185;BME280;18176;49.502;11.754;2023-06-22T02:14:28;97127.97;;;20.85;76.75
21185;BME280;18176;49.502;11.754;2023-06-22T02:18:31;97143.31;;;21.08;75.47
21185;BME280;18176;49.502;11.754;2023-06-22T02:22:33;97151.66;;;21.07;75.41
21185;BME280;18176;49.502;11.754;2023-06-22T02:26:34;97135.75;;;20.86;76.11
21185;BME280;18176;49.502;11.754;2023-06-22T02:30:35;97134.72;;;21.06;74.91
21185;BME280;18176;49.502;11.754;2023-06-22T02:34:39;97111.72;;;20.71;76.55
21185;BME280;18176;49.502;11.754;2023-06-22T02:38:41;97130.72;;;20.80;76.07
21185;BME280;18176;49.502;11.754;2023-06-22T02:42:43;97116.19;;;20.81;75.48
21185;BME280;18176;49.502;11.754;2023-06-22T02:46:46;97164.94;;;20.98;75.48
21185;BME280;18176;49.502;11.754;2023-06-22T02:50:50;97162.66;;;21.10;75.18
21185;BME280;18176;49.502;11.754;2023-06-22T02:54:50;97127.44;;;20.64;75.73
21185;BME280;18176;49.502;11.754;2023-06-22T02:58:50;97158.09;;;20.87;75.50
21185;BME280;18176;49.502;11.754;2023-06-22T03:02:51;97157.53;;;20.90;75.65
21185;BME280;18176;49.502;11.754;2023-06-22T03:06:54;97158.03;;;20.92;75.22
21185;BME280;18176;49.502;11.754;2023-06-22T03:11:00;97155.56;;;20.95;75.12
21185;BME280;18176;49.502;11.754;2023-06-22T03:15:01;97127.16;;;20.84;75.03
21185;BME280;18176;49.502;11.754;2023-06-22T03:19:01;97126.94;;;20.81;74.98
21185;BME280;18176;49.502;11.754;2023-06-22T03:23:04;97157.91;;;20.36;76.96
21185;BME280;18176;49.502;11.754;2023-06-22T03:27:05;97184.03;;;20.36;76.77
21185;BME280;18176;49.502;11.754;2023-06-22T03:31:06;97203.28;;;20.48;76.28
21185;BME280;18176;49.502;11.754;2023-06-22T03:35:09;97204.19;;;20.62;75.86
21185;BME280;18176;49.502;11.754;2023-06-22T03:39:13;97239.44;;;20.89;75.01
21185;BME280;18176;49.502;11.754;2023-06-22T03:43:15;97227.38;;;20.63;75.62
21185;BME280;18176;49.502;11.754;2023-06-22T03:47:15;97239.94;;;20.91;74.78
21185;BME280;18176;49.502;11.754;2023-06-22T03:51:15;97223.31;;;20.84;75.48
21185;BME280;18176;49.502;11.754;2023-06-22T03:55:19;97204.00;;;20.77;75.43
21185;BME280;18176;49.502;11.754;2023-06-22T03:59:20;97218.38;;;20.91;75.93
21185;BME280;18176;49.502;11.754;2023-06-22T04:03:20;97206.97;;;21.04;75.16
21185;BME280;18176;49.502;11.754;2023-06-22T04:07:21;97216.56;;;21.10;75.69
21185;BME280;18176;49.502;11.754;2023-06-22T04:11:24;97182.28;;;21.16;74.90
21185;BME280;18176;49.502;11.754;2023-06-22T04:15:24;97158.72;;;21.21;75.82
21185;BME280;18176;49.502;11.754;2023-06-22T04:19:25;97188.09;;;21.74;76.73
21185;BME280;18176;49.502;11.754;2023-06-22T04:23:25;97168.56;;;21.82;78.51
21185;BME280;18176;49.502;11.754;2023-06-22T04:27:28;97184.06;;;22.22;77.80
21185;BME280;18176;49.502;11.754;2023-06-22T04:31:29;97176.50;;;22.24;77.39
21185;BME280;18176;49.502;11.754;2023-06-22T04:35:29;97157.38;;;22.07;78.13
21185;BME280;18176;49.502;11.754;2023-06-22T04:39:29;97165.78;;;22.32;78.09
21185;BME280;18176;49.502;11.754;2023-06-22T04:43:34;97195.09;;;22.25;78.29
21185;BME280;18176;49.502;11.754;2023-06-22T04:47:34;97158.56;;;22.01;79.19
21185;BME280;18176;49.502;11.754;2023-06-22T04:51:39;97184.44;;;22.02;80.02
21185;BME280;18176;49.502;11.754;2023-06-22T04:55:40;97137.28;;;22.26;78.67
21185;BME280;18176;49.502;11.754;2023-06-22T04:59:46;97093.28;;;21.99;78.75
21185;BME280;18176;49.502;11.754;2023-06-22T05:03:47;97165.72;;;22.51;76.49
21185;BME280;18176;49.502;11.754;2023-06-22T05:07:51;97098.06;;;22.43;77.05
21185;BME280;18176;49.502;11.754;2023-06-22T05:11:57;97108.78;;;22.75;76.36
21185;BME280;18176;49.502;11.754;2023-06-22T05:16:02;97162.47;;;23.03;75.85
21185;BME280;18176;49.502;11.754;2023-06-22T05:20:05;97107.19;;;23.10;76.20
21185;BME280;18176;49.502;11.754;2023-06-22T05:24:06;97119.25;;;23.26;75.76
21185;BME280;18176;49.502;11.754;2023-06-22T05:28:07;97140.16;;;23.34;74.85
21185;BME280;18176;49.502;11.754;2023-06-22T05:32:11;97123.47;;;23.54;75.95
21185;BME280;18176;49.502;11.754;2023-06-22T05:36:12;97093.03;;;23.48;75.16
21185;BME280;18176;49.502;11.754;2023-06-22T05:40:13;97068.38;;;23.05;75.43
21185;BME280;18176;49.502;11.754;2023-06-22T05:44:14;97100.09;;;23.58;74.31
21185;BME280;18176;49.502;11.754;2023-06-22T05:48:17;97125.03;;;23.99;74.24
21185;BME280;18176;49.502;11.754;2023-06-22T05:52:17;97126.47;;;24.27;72.70
21185;BME280;18176;49.502;11.754;2023-06-22T05:56:18;97103.56;;;24.33;71.89
21185;BME280;18176;49.502;11.754;2023-06-22T06:00:20;97119.91;;;24.68;70.71
21185;BME280;18176;49.502;11.754;2023-06-22T06:04:23;97105.22;;;24.69;70.73
21185;BME280;18176;49.502;11.754;2023-06-22T06:08:25;97111.81;;;24.76;70.07
21185;BME280;18176;49.502;11.754;2023-06-22T06:12:25;97109.78;;;24.99;69.67
21185;BME280;18176;49.502;11.754;2023-06-22T06:16:26;97079.31;;;24.85;68.43
21185;BME280;18176;49.502;11.754;2023-06-22T06:20:29;97093.19;;;24.92;69.58
21185;BME280;18176;49.502;11.754;2023-06-22T06:24:30;97088.56;;;25.09;68.31
21185;BME280;18176;49.502;11.754;2023-06-22T06:28:34;97088.75;;;25.13;69.45
21185;BME280;18176;49.502;11.754;2023-06-22T06:32:34;97088.09;;;25.16;69.03
21185;BME280;18176;49.502;11.754;2023-06-22T06:36:38;97074.50;;;25.42;67.79
21185;BME280;18176;49.502;11.754;2023-06-22T06:40:38;97096.94;;;25.94;66.39
21185;BME280;18176;49.502;11.754;2023-06-22T06:44:39;97079.03;;;26.10;65.71
21185;BME280;18176;49.502;11.754;2023-06-22T06:48:39;97089.97;;;26.30;65.26
21185;BME280;18176;49.502;11.754;2023-06-22T06:52:42;97088.38;;;26.29;64.10
21185;BME280;18176;49.502;11.754;2023-06-22T06:56:43;97080.91;;;26.18;64.45
21185;BME280;18176;49.502;11.754;2023-06-22T07:00:45;97072.13;;;26.50;64.40
21185;BME280;18176;49.502;11.754;2023-06-22T07:04:46;97073.53;;;26.85;63.05
21185;BME280;18176;49.502;11.754;2023-06-22T07:08:49;97070.94;;;27.09;62.72
21185;BME280;18176;49.502;11.754;2023-06-22T07:12:50;97068.22;;;27.51;61.23
21185;BME280;18176;49.502;11.754;2023-06-22T07:16:50;97067.72;;;27.37;60.87
21185;BME280;18176;49.502;11.754;2023-06-22T07:20:50;97021.94;;;27.51;60.14
21185;BME280;18176;49.502;11.754;2023-06-22T07:24:54;97061.00;;;27.67;59.47
21185;BME280;18176;49.502;11.754;2023-06-22T07:28:54;97024.69;;;27.75;59.69
21185;BME280;18176;49.502;11.754;2023-06-22T07:32:55;97044.53;;;28.08;58.50
21185;BME280;18176;49.502;11.754;2023-06-22T07:36:55;97034.53;;;28.00;58.64
21185;BME280;18176;49.502;11.754;2023-06-22T07:40:59;97048.03;;;28.21;58.34
21185;BME280;18176;49.502;11.754;2023-06-22T07:45:00;97051.13;;;28.68;57.39
21185;BME280;18176;49.502;11.754;2023-06-22T07:49:02;97024.97;;;28.79;56.01
21185;BME280;18176;49.502;11.754;2023-06-22T07:53:02;97026.31;;;29.25;55.60
21185;BME280;18176;49.502;11.754;2023-06-22T07:57:06;97029.16;;;29.28;53.92
21185;BME280;18176;49.502;11.754;2023-06-22T08:01:06;97027.78;;;29.22;53.39
21185;BME280;18176;49.502;11.754;2023-06-22T08:05:07;97001.88;;;30.03;50.75
21185;BME280;18176;49.502;11.754;2023-06-22T08:09:18;97019.16;;;31.07;47.78
21185;BME280;18176;49.502;11.754;2023-06-22T08:13:22;97023.03;;;32.84;45.64
21185;BME280;18176;49.502;11.754;2023-06-22T08:17:22;97019.66;;;33.98;41.05
21185;BME280;18176;49.502;11.754;2023-06-22T08:21:23;97023.34;;;34.59;39.50
21185;BME280;18176;49.502;11.754;2023-06-22T08:25:24;97021.84;;;34.73;36.96
21185;BME280;18176;49.502;11.754;2023-06-22T08:29:27;97005.69;;;33.40;37.07
21185;BME280;18176;49.502;11.754;2023-06-22T08:33:27;97022.72;;;33.19;37.48
21185;BME280;18176;49.502;11.754;2023-06-22T08:37:28;97028.88;;;33.75;36.59
21185;BME280;18176;49.502;11.754;2023-06-22T08:41:33;97015.63;;;34.86;35.47
21185;BME280;18176;49.502;11.754;2023-06-22T08:45:39;97019.97;;;34.91;35.13
21185;BME280;18176;49.502;11.754;2023-06-22T08:49:40;97019.22;;;34.36;35.26
21185;BME280;18176;49.502;11.754;2023-06-22T08:53:41;97006.94;;;33.82;35.03
21185;BME280;18176;49.502;11.754;2023-06-22T08:57:42;97020.41;;;34.96;34.05
21185;BME280;18176;49.502;11.754;2023-06-22T09:01:45;97004.94;;;34.20;34.89
21185;BME280;18176;49.502;11.754;2023-06-22T09:05:46;97007.00;;;34.91;34.87
21185;BME280;18176;49.502;11.754;2023-06-22T09:09:47;97007.69;;;35.50;33.30
21185;BME280;18176;49.502;11.754;2023-06-22T09:13:47;96995.19;;;35.98;33.04
21185;BME280;18176;49.502;11.754;2023-06-22T09:17:51;96995.94;;;36.13;33.47
21185;BME280;18176;49.502;11.754;2023-06-22T09:21:51;97004.31;;;37.52;31.30
21185;BME280;18176;49.502;11.754;2023-06-22T09:25:52;96979.09;;;38.05;30.14
21185;BME280;18176;49.502;11.754;2023-06-22T09:29:52;96992.63;;;37.92;29.57
21185;BME280;18176;49.502;11.754;2023-06-22T09:33:55;96984.44;;;36.92;31.73
21185;BME280;18176;49.502;11.754;2023-06-22T09:37:56;96996.75;;;36.20;32.65
21185;BME280;18176;49.502;11.754;2023-06-22T09:41:58;96979.75;;;36.75;32.34
21185;BME280;18176;49.502;11.754;2023-06-22T09:45:59;96980.13;;;36.91;32.48
21185;BME280;18176;49.502;11.754;2023-06-22T09:50:03;96969.50;;;38.17;30.64
21185;BME280;18176;49.502;11.754;2023-06-22T09:54:05;96973.16;;;38.88;29.62
21185;BME280;18176;49.502;11.754;2023-06-22T09:58:05;96924.56;;;39.94;27.99
21185;BME280;18176;49.502;11.754;2023-06-22T10:02:06;96926.88;;;36.69;31.59
21185;BME280;18176;49.502;11.754;2023-06-22T10:06:10;96947.34;;;37.69;31.10
21185;BME280;18176;49.502;11.754;2023-06-22T10:10:11;96939.53;;;39.47;28.83
21185;BME280;18176;49.502;11.754;2023-06-22T10:14:12;96954.31;;;37.22;31.23
21185;BME280;18176;49.502;11.754;2023-06-22T10:18:14;96944.19;;;35.21;34.00
21185;BME280;18176;49.502;11.754;2023-06-22T10:22:17;96946.63;;;37.54;30.97
21185;BME280;18176;49.502;11.754;2023-06-22T10:26:18;96922.25;;;35.71;33.01
21185;BME280;18176;49.502;11.754;2023-06-22T10:30:18;96898.31;;;37.11;31.10
21185;BME280;18176;49.502;11.754;2023-06-22T10:34:18;96913.03;;;37.59;31.21
21185;BME280;18176;49.502;11.754;2023-06-22T10:38:21;96910.38;;;37.97;31.16
21185;BME280;18176;49.502;11.754;2023-06-22T10:42:22;96898.22;;;38.28;29.91
21185;BME280;18176;49.502;11.754;2023-06-22T10:46:25;96893.47;;;37.29;30.46
21185;BME280;18176;49.502;11.754;2023-06-22T10:50:26;96895.47;;;37.83;30.57
21185;BME280;18176;49.502;11.754;2023-06-22T10:54:29;96897.72;;;38.40;29.80
21185;BME280;18176;49.502;11.754;2023-06-22T10:58:31;96875.09;;;39.66;28.33
21185;BME280;18176;49.502;11.754;2023-06-22T11:02:31;96860.66;;;39.97;27.70
21185;BME280;18176;49.502;11.754;2023-06-22T11:06:32;96876.38;;;38.74;29.12
21185;BME280;18176;49.502;11.754;2023-06-22T11:10:36;96882.03;;;37.78;29.35
21185;BME280;18176;49.502;11.754;2023-06-22T11:14:38;96873.94;;;39.86;28.01
21185;BME280;18176;49.502;11.754;2023-06-22T11:18:39;96885.22;;;40.65;26.13
21185;BME280;18176;49.502;11.754;2023-06-22T11:22:40;96880.09;;;42.77;24.99
21185;BME280;18176;49.502;11.754;2023-06-22T11:26:43;96860.72;;;44.33;22.92
21185;BME280;18176;49.502;11.754;2023-06-22T11:30:44;96872.34;;;43.97;24.04
21185;BME280;18176;49.502;11.754;2023-06-22T11:34:44;96852.75;;;44.23;22.32
21185;BME280;18176;49.502;11.754;2023-06-22T11:38:44;96870.97;;;44.92;22.07
21185;BME280;18176;49.502;11.754;2023-06-22T11:42:47;96857.22;;;42.69;22.87
21185;BME280;18176;49.502;11.754;2023-06-22T11:46:48;96866.94;;;42.04;23.85
21185;BME280;18176;49.502;11.754;2023-06-22T11:50:49;96865.56;;;41.47;24.62
21185;BME280;18176;49.502;11.754;2023-06-22T11:54:49;96856.34;;;40.79;25.67
21185;BME280;18176;49.502;11.754;2023-06-22T11:58:52;96857.28;;;42.94;23.86
21185;BME280;18176;49.502;11.754;2023-06-22T12:02:53;96848.28;;;44.69;22.65
21185;BME280;18176;49.502;11.754;2023-06-22T12:06:57;96835.09;;;44.47;20.73
21185;BME280;18176;49.502;11.754;2023-06-22T12:10:57;96820.78;;;43.64;22.13
21185;BME280;18176;49.502;11.754;2023-06-22T12:15:00;96825.72;;;44.41;22.00
21185;BME280;18176;49.502;11.754;2023-06-22T12:19:01;96827.06;;;46.18;19.99
21185;BME280;18176;49.502;11.754;2023-06-22T12:23:02;96824.56;;;44.51;20.73
21185;BME280;18176;49.502;11.754;2023-06-22T12:27:03;96825.78;;;43.82;22.23
21185;BME280;18176;49.502;11.754;2023-06-22T12:31:06;96817.88;;;41.13;24.46
21185;BME280;18176;49.502;11.754;2023-06-22T12:35:08;96795.53;;;43.80;23.24
21185;BME280;18176;49.502;11.754;2023-06-22T12:39:11;96790.50;;;44.96;20.88
21185;BME280;18176;49.502;11.754;2023-06-22T12:43:12;96678.91;;;42.15;22.34
21185;BME280;18176;49.502;11.754;2023-06-22T12:47:15;96780.44;;;43.44;22.62
21185;BME280;18176;49.502;11.754;2023-06-22T12:51:21;96761.13;;;42.86;22.18
21185;BME280;18176;49.502;11.754;2023-06-22T12:55:22;96742.56;;;41.84;23.24
21185;BME280;18176;49.502;11.754;2023-06-22T12:59:22;96749.88;;;40.82;24.39
21185;BME280;18176;49.502;11.754;2023-06-22T13:03:25;96753.19;;;39.98;25.16
21185;BME280;18176;49.502;11.754;2023-06-22T13:07:26;96736.72;;;43.03;22.17
21185;BME280;18176;49.502;11.754;2023-06-22T13:11:26;96687.50;;;43.90;21.60
21185;BME280;18176;49.502;11.754;2023-06-22T13:15:27;96722.44;;;44.38;21.04
21185;BME280;18176;49.502;11.754;2023-06-22T13:19:31;96721.28;;;44.26;20.66
21185;BME280;18176;49.502;11.754;2023-06-22T13:23:32;96692.72;;;39.89;23.49
21185;BME280;18176;49.502;11.754;2023-06-22T13:27:32;96724.00;;;40.13;24.17
21185;BME280;18176;49.502;11.754;2023-06-22T13:31:33;96703.69;;;40.88;23.41
21185;BME280;18176;49.502;11.754;2023-06-22T13:35:36;96713.63;;;41.37;22.82
21185;BME280;18176;49.502;11.754;2023-06-22T13:39:37;96686.00;;;43.42;21.85
21185;BME280;18176;49.502;11.754;2023-06-22T13:43:37;96678.22;;;44.15;21.03
21185;BME280;18176;49.502;11.754;2023-06-22T13:47:38;96690.53;;;44.26;20.85
21185;BME280;18176;49.502;11.754;2023-06-22T13:51:41;96692.94;;;44.37;20.75
21185;BME280;18176;49.502;11.754;2023-06-22T13:55:41;96699.44;;;43.09;22.27
21185;BME280;18176;49.502;11.754;2023-06-22T13:59:42;96710.72;;;42.68;21.87
21185;BME280;18176;49.502;11.754;2023-06-22T14:03:42;96708.97;;;42.20;22.41
21185;BME280;18176;49.502;11.754;2023-06-22T14:07:46;96692.03;;;43.75;20.80
21185;BME280;18176;49.502;11.754;2023-06-22T14:11:47;96693.19;;;43.65;21.39
21185;BME280;18176;49.502;11.754;2023-06-22T14:15:47;96688.16;;;45.17;19.65
21185;BME280;18176;49.502;11.754;2023-06-22T14:19:49;96666.72;;;46.32;19.32
21185;BME280;18176;49.502;11.754;2023-06-22T14:23:53;96654.56;;;46.26;19.03
21185;BME280;18176;49.502;11.754;2023-06-22T14:27:53;96599.69;;;42.29;21.36
21185;BME280;18176;49.502;11.754;2023-06-22T14:31:54;96651.19;;;42.62;21.45
21185;BME280;18176;49.502;11.754;2023-06-22T14:35:55;96666.06;;;43.31;20.91
21185;BME280;18176;49.502;11.754;2023-06-22T14:39:58;96656.09;;;43.64;20.70
21185;BME280;18176;49.502;11.754;2023-06-22T14:43:58;96658.31;;;42.88;21.77
21185;BME280;18176;49.502;11.754;2023-06-22T14:47:59;96563.53;;;42.88;21.42
21185;BME280;18176;49.502;11.754;2023-06-22T14:52:00;96643.31;;;44.19;20.71
21185;BME280;18176;49.502;11.754;2023-06-22T14:56:04;96643.56;;;45.32;19.81
21185;BME280;18176;49.502;11.754;2023-06-22T15:00:07;96619.09;;;46.14;19.57
21185;BME280;18176;49.502;11.754;2023-06-22T15:04:08;96618.78;;;46.21;18.79
21185;BME280;18176;49.502;11.754;2023-06-22T15:08:08;96586.72;;;46.87;18.76
21185;BME280;18176;49.502;11.754;2023-06-22T15:12:12;96603.56;;;45.94;18.99
21185;BME280;18176;49.502;11.754;2023-06-22T15:16:12;96590.59;;;46.90;17.91
21185;BME280;18176;49.502;11.754;2023-06-22T15:20:13;96582.41;;;46.77;17.96
21185;BME280;18176;49.502;11.754;2023-06-22T15:24:13;96580.53;;;44.82;20.08
21185;BME280;18176;49.502;11.754;2023-06-22T15:28:16;96574.78;;;43.75;21.20
21185;BME280;18176;49.502;11.754;2023-06-22T15:32:18;96576.84;;;45.12;20.11
21185;BME280;18176;49.502;11.754;2023-06-22T15:36:19;96558.22;;;45.45;19.89
21185;BME280;18176;49.502;11.754;2023-06-22T15:40:20;96562.63;;;44.21;20.81
21185;BME280;18176;49.502;11.754;2023-06-22T15:44:24;96559.69;;;43.07;21.57
21185;BME280;18176;49.502;11.754;2023-06-22T15:48:24;96542.59;;;41.70;22.12
21185;BME280;18176;49.502;11.754;2023-06-22T15:52:25;96536.38;;;44.58;19.74
21185;BME280;18176;49.502;11.754;2023-06-22T15:56:26;96518.41;;;45.59;19.23
21185;BME280;18176;49.502;11.754;2023-06-22T16:00:29;96511.13;;;45.94;19.05
21185;BME280;18176;49.502;11.754;2023-06-22T16:04:30;96510.31;;;46.92;18.89
21185;BME280;18176;49.502;11.754;2023-06-22T16:08:31;96503.16;;;46.91;19.06
21185;BME280;18176;49.502;11.754;2023-06-22T16:12:33;96503.53;;;47.22;18.91
21185;BME280;18176;49.502;11.754;2023-06-22T16:16:36;96490.03;;;48.84;17.78
21185;BME280;18176;49.502;11.754;2023-06-22T16:20:37;96492.28;;;49.00;17.18
21185;BME280;18176;49.502;11.754;2023-06-22T16:24:38;96447.09;;;46.44;19.07
21185;BME280;18176;49.502;11.754;2023-06-22T16:28:39;96460.50;;;48.04;17.89
21185;BME280;18176;49.502;11.754;2023-06-22T16:32:50;96457.56;;;47.64;18.58
21185;BME280;18176;49.502;11.754;2023-06-22T16:36:51;96457.47;;;48.22;18.00
21185;BME280;18176;49.502;11.754;2023-06-22T16:40:52;96475.22;;;47.50;18.89
21185;BME280;18176;49.502;11.754;2023-06-22T16:44:54;96455.66;;;47.02;19.13
21185;BME280;18176;49.502;11.754;2023-06-22T16:48:58;96445.28;;;45.57;20.01
21185;BME280;18176;49.502;11.754;2023-06-22T16:52:58;96461.78;;;44.37;21.93
21185;BME280;18176;49.502;11.754;2023-06-22T16:57:00;96453.44;;;43.97;23.11
21185;BME280;18176;49.502;11.754;2023-06-22T17:01:05;96455.91;;;41.72;25.11
21185;BME280;18176;49.502;11.754;2023-06-22T17:05:10;96432.28;;;42.02;25.07
21185;BME280;18176;49.502;11.754;2023-06-22T17:09:14;96401.38;;;41.08;26.06
21185;BME280;18176;49.502;11.754;2023-06-22T17:13:14;96430.81;;;41.59;25.82
21185;BME280;18176;49.502;11.754;2023-06-22T17:17:17;96439.53;;;41.20;26.61
21185;BME280;18176;49.502;11.754;2023-06-22T17:21:24;96435.28;;;41.44;26.20
21185;BME280;18176;49.502;11.754;2023-06-22T17:25:28;96415.75;;;41.19;26.38
21185;BME280;18176;49.502;11.754;2023-06-22T17:29:31;96401.78;;;41.35;26.52
21185;BME280;18176;49.502;11.754;2023-06-22T17:33:32;96411.56;;;40.25;27.86
21185;BME280;18176;49.502;11.754;2023-06-22T17:37:50;96373.28;;;40.48;27.43
21185;BME280;18176;49.502;11.754;2023-06-22T17:41:51;96381.84;;;40.09;28.01
21185;BME280;18176;49.502;11.754;2023-06-22T17:45:51;96374.22;;;39.97;28.32
21185;BME280;18176;49.502;11.754;2023-06-22T17:50:05;96402.66;;;40.01;28.76
21185;BME280;18176;49.502;11.754;2023-06-22T17:54:11;96336.75;;;39.05;29.10
21185;BME280;18176;49.502;11.754;2023-06-22T17:58:11;96429.28;;;39.07;29.76
21185;BME280;18176;49.502;11.754;2023-06-22T18:02:14;96414.88;;;38.34;30.50
21185;BME280;18176;49.502;11.754;2023-06-22T18:06:17;96408.63;;;37.83;31.29
21185;BME280;18176;49.502;11.754;2023-06-22T18:10:26;96420.50;;;37.54;31.93
21185;BME280;18176;49.502;11.754;2023-06-22T18:14:27;96360.78;;;36.73;32.53
21185;BME280;18176;49.502;11.754;2023-06-22T18:18:29;96391.41;;;36.51;33.44
21185;BME280;18176;49.502;11.754;2023-06-22T18:22:32;96432.94;;;36.34;34.23
21185;BME280;18176;49.502;11.754;2023-06-22T18:26:37;96483.31;;;35.97;34.48
21185;BME280;18176;49.502;11.754;2023-06-22T18:30:38;96486.41;;;35.41;35.71
21185;BME280;18176;49.502;11.754;2023-06-22T18:34:40;96486.59;;;33.78;45.03
21185;BME280;18176;49.502;11.754;2023-06-22T18:38:43;96468.47;;;31.65;54.75
21185;BME280;18176;49.502;11.754;2023-06-22T18:42:48;96460.09;;;30.58;57.48
21185;BME280;18176;49.502;11.754;2023-06-22T18:46:51;96451.34;;;30.45;65.65
21185;BME280;18176;49.502;11.754;2023-06-22T18:51:10;96364.94;;;29.85;68.17
21185;BME280;18176;49.502;11.754;2023-06-22T18:55:14;96322.38;;;29.35;68.65
21185;BME280;18176;49.502;11.754;2023-06-22T18:59:44;96398.84;;;29.61;68.41
21185;BME280;18176;49.502;11.754;2023-06-22T19:03:52;96403.41;;;29.54;68.13
21185;BME280;18176;49.502;11.754;2023-06-22T19:08:01;96416.94;;;29.47;64.35
21185;BME280;18176;49.502;11.754;2023-06-22T19:12:21;96434.56;;;29.30;65.00
21185;BME280;18176;49.502;11.754;2023-06-22T19:16:29;96465.22;;;29.43;61.48
21185;BME280;18176;49.502;11.754;2023-06-22T19:20:32;96432.44;;;29.01;57.34
21185;BME280;18176;49.502;11.754;2023-06-22T19:24:48;96435.16;;;29.20;55.37
21185;BME280;18176;49.502;11.754;2023-06-22T19:28:52;96350.47;;;28.94;53.88
21185;BME280;18176;49.502;11.754;2023-06-22T19:32:57;96387.88;;;29.16;54.01
21185;BME280;18176;49.502;11.754;2023-06-22T19:36:59;96369.78;;;29.27;52.06
21185;BME280;18176;49.502;11.754;2023-06-22T19:41:00;96323.19;;;28.94;51.84
21185;BME280;18176;49.502;11.754;2023-06-22T19:45:01;96329.50;;;28.98;53.44
21185;BME280;18176;49.502;11.754;2023-06-22T19:49:05;96357.03;;;29.12;52.31
21185;BME280;18176;49.502;11.754;2023-06-22T19:53:09;96323.63;;;28.96;52.13
21185;BME280;18176;49.502;11.754;2023-06-22T19:57:10;96305.50;;;29.07;50.80
21185;BME280;18176;49.502;11.754;2023-06-22T20:01:11;96299.69;;;28.67;51.29
21185;BME280;18176;49.502;11.754;2023-06-22T20:05:14;96368.22;;;28.84;51.96
21185;BME280;18176;49.502;11.754;2023-06-22T20:09:15;96418.44;;;29.02;51.10
21185;BME280;18176;49.502;11.754;2023-06-22T20:13:19;96550.66;;;28.89;52.15
21185;BME280;18176;49.502;11.754;2023-06-22T20:17:40;96410.41;;;27.55;52.72
21185;BME280;18176;49.502;11.754;2023-06-22T20:21:47;96524.03;;;28.01;53.26
21185;BME280;18176;49.502;11.754;2023-06-22T20:25:50;96537.91;;;27.53;55.27
21185;BME280;18176;49.502;11.754;2023-06-22T20:29:51;96566.81;;;27.17;57.13
21185;BME280;18176;49.502;11.754;2023-06-22T20:34:03;96616.72;;;26.61;59.71
21185;BME280;18176;49.502;11.754;2023-06-22T20:38:06;96764.75;;;26.31;62.41
21185;BME280;18176;49.502;11.754;2023-06-22T20:42:08;96682.56;;;26.34;69.06
21185;BME280;18176;49.502;11.754;2023-06-22T20:46:10;96676.97;;;25.24;74.15
21185;BME280;18176;49.502;11.754;2023-06-22T20:50:11;96648.63;;;24.92;76.93
21185;BME280;18176;49.502;11.754;2023-06-22T20:54:14;96641.28;;;24.63;79.62
21185;BME280;18176;49.502;11.754;2023-06-22T20:58:15;96681.44;;;24.99;83.78
21185;BME280;18176;49.502;11.754;2023-06-22T21:02:16;96758.44;;;24.52;81.11
21185;BME280;18176;49.502;11.754;2023-06-22T21:06:17;96884.97;;;24.42;82.47